createdAt,value
2017-09-06T00:01:28.373Z,6.73
2017-09-06T00:03:55.944Z,5.90
2017-09-06T00:06:23.479Z,6.07
2017-09-06T00:08:51.028Z,6.93
2017-09-06T00:11:18.583Z,6.00
2017-09-06T00:13:46.148Z,6.13
2017-09-06T00:16:13.702Z,6.23
2017-09-06T00:18:41.238Z,8.37
2017-09-06T00:21:08.820Z,6.43
2017-09-06T00:23:36.368Z,7.10
2017-09-06T00:26:04.747Z,5.10
2017-09-06T00:28:32.318Z,6.60
2017-09-06T00:30:59.844Z,6.40
2017-09-06T00:33:27.388Z,6.10
2017-09-06T00:35:54.931Z,6.47
2017-09-06T00:38:22.505Z,7.83
2017-09-06T00:40:50.095Z,7.33
2017-09-06T00:43:18.050Z,7.73
2017-09-06T00:45:45.585Z,8.20
2017-09-06T00:48:13.167Z,5.80
2017-09-06T00:50:40.724Z,6.87
2017-09-06T00:53:08.301Z,10.07
2017-09-06T00:55:35.857Z,11.30
2017-09-06T00:58:03.462Z,7.03
2017-09-06T01:00:31.045Z,8.73
2017-09-06T01:02:58.599Z,7.33
2017-09-06T01:05:26.178Z,8.17
2017-09-06T01:07:53.781Z,7.63
2017-09-06T01:10:21.337Z,7.93
2017-09-06T01:12:48.960Z,9.07
2017-09-06T01:15:16.697Z,8.20
2017-09-06T01:17:44.259Z,8.33
2017-09-06T01:20:11.838Z,10.60
2017-09-06T01:22:39.403Z,8.00
2017-09-06T01:25:06.980Z,8.87
2017-09-06T01:27:34.554Z,10.10
2017-09-06T01:30:02.106Z,10.23
2017-09-06T01:32:29.645Z,10.60
2017-09-06T01:34:57.202Z,11.37
2017-09-06T01:37:25.699Z,11.57
2017-09-06T01:39:53.230Z,11.13
2017-09-06T01:42:20.810Z,15.73
2017-09-06T01:44:48.337Z,14.00
2017-09-06T01:47:15.913Z,16.23
2017-09-06T01:49:43.499Z,17.50
2017-09-06T01:52:11.078Z,15.67
2017-09-06T01:54:38.666Z,21.30
2017-09-06T01:57:06.227Z,13.77
2017-09-06T01:59:33.812Z,20.03
2017-09-06T02:02:01.391Z,18.07
2017-09-06T02:04:28.956Z,14.30
2017-09-06T02:06:56.570Z,13.80
2017-09-06T02:09:24.101Z,14.77
2017-09-06T02:11:51.656Z,15.20
2017-09-06T02:14:20.074Z,17.50
2017-09-06T02:16:47.682Z,17.13
2017-09-06T02:19:15.287Z,16.73
2017-09-06T02:21:42.854Z,19.80
2017-09-06T02:24:10.412Z,20.90
2017-09-06T02:26:38.046Z,28.80
2017-09-06T02:29:05.609Z,19.67
2017-09-06T02:31:33.176Z,18.93
2017-09-06T02:34:08.356Z,18.57
2017-09-06T02:36:35.936Z,20.07
2017-09-06T02:39:03.530Z,17.50
2017-09-06T02:41:31.157Z,17.73
2017-09-06T02:43:58.743Z,16.73
2017-09-06T02:46:26.763Z,17.40
2017-09-06T02:48:54.351Z,18.10
2017-09-06T02:51:21.913Z,20.17
2017-09-06T02:53:49.492Z,19.87
2017-09-06T02:56:17.057Z,19.03
2017-09-06T02:58:44.648Z,23.77
2017-09-06T03:01:12.211Z,17.60
2017-09-06T03:03:39.792Z,21.63
2017-09-06T03:06:07.380Z,22.63
2017-09-06T03:08:34.930Z,20.77
2017-09-06T03:11:02.501Z,21.07
2017-09-06T03:13:30.105Z,24.60
2017-09-06T03:15:57.662Z,27.17
2017-09-06T03:18:26.035Z,25.17
2017-09-06T03:20:53.600Z,25.37
2017-09-06T03:23:21.170Z,23.43
2017-09-06T03:25:48.732Z,24.20
2017-09-06T03:28:16.289Z,24.17
2017-09-06T03:30:43.875Z,23.97
2017-09-06T03:33:11.434Z,27.20
2017-09-06T03:35:38.974Z,27.53
2017-09-06T03:38:06.521Z,26.20
2017-09-06T03:40:34.071Z,36.47
2017-09-06T03:43:01.664Z,30.27
2017-09-06T03:45:29.234Z,26.93
2017-09-06T03:47:56.783Z,30.90
2017-09-06T03:50:24.341Z,30.10
2017-09-06T03:52:51.923Z,31.70
2017-09-06T03:55:19.522Z,29.67
2017-09-06T03:57:47.061Z,30.43
2017-09-06T04:00:14.626Z,21.30
2017-09-06T04:02:42.216Z,21.10
2017-09-06T04:05:10.121Z,18.60
2017-09-06T04:07:37.667Z,21.37
2017-09-06T04:10:05.244Z,19.50
2017-09-06T04:12:32.831Z,18.37
2017-09-06T04:15:00.390Z,21.97
2017-09-06T04:17:27.961Z,21.57
2017-09-06T04:19:55.583Z,14.40
2017-09-06T04:22:23.737Z,13.17
2017-09-06T04:24:51.344Z,14.50
2017-09-06T04:27:18.913Z,21.83
2017-09-06T04:29:46.474Z,14.10
2017-09-06T04:32:14.066Z,16.00
2017-09-06T04:34:41.632Z,16.00
2017-09-06T04:37:09.183Z,14.13
2017-09-06T04:39:36.783Z,13.93
2017-09-06T04:42:04.326Z,14.70
2017-09-06T04:44:31.876Z,9.63
2017-09-06T04:46:59.436Z,11.57
2017-09-06T04:49:27.010Z,8.03
2017-09-06T04:51:54.657Z,9.90
2017-09-06T04:54:22.234Z,11.43
2017-09-06T04:56:50.585Z,9.77
2017-09-06T04:59:18.145Z,10.10
2017-09-06T05:01:45.718Z,14.60
2017-09-06T05:04:13.781Z,8.10
2017-09-06T05:06:41.578Z,7.30
2017-09-06T05:09:09.506Z,10.87
2017-09-06T05:11:37.074Z,8.23
2017-09-06T05:14:04.673Z,8.27
2017-09-06T05:16:32.214Z,6.80
2017-09-06T05:18:59.797Z,9.30
2017-09-06T05:21:27.364Z,14.63
2017-09-06T05:23:54.941Z,6.50
2017-09-06T05:26:22.513Z,7.70
2017-09-06T05:28:51.010Z,8.53
2017-09-06T05:31:18.569Z,10.90
2017-09-06T05:33:46.752Z,11.70
2017-09-06T05:36:14.313Z,7.37
2017-09-06T05:38:41.881Z,7.23
2017-09-06T05:41:09.420Z,12.63
2017-09-06T05:43:37.010Z,13.30
2017-09-06T05:46:04.599Z,11.70
2017-09-06T05:48:32.178Z,12.37
2017-09-06T05:50:59.746Z,9.90
2017-09-06T05:53:27.314Z,8.87
2017-09-06T05:55:54.884Z,10.00
2017-09-06T05:58:22.462Z,9.43
2017-09-06T06:00:50.012Z,9.67
2017-09-06T06:03:17.598Z,9.93
2017-09-06T06:05:45.147Z,10.73
2017-09-06T06:08:12.710Z,6.33
2017-09-06T06:10:40.272Z,7.93
2017-09-06T06:13:07.813Z,5.60
2017-09-06T06:15:35.395Z,5.17
2017-09-06T06:18:02.963Z,5.80
2017-09-06T06:20:30.527Z,6.47
2017-09-06T06:22:58.101Z,5.97
2017-09-06T06:25:25.666Z,6.83
2017-09-06T06:27:53.227Z,4.23
2017-09-06T06:30:21.527Z,5.57
2017-09-06T06:32:50.134Z,8.47
2017-09-06T06:35:17.719Z,6.03
2017-09-06T06:37:45.245Z,7.20
2017-09-06T06:40:13.668Z,7.23
2017-09-06T06:42:42.148Z,6.57
2017-09-06T06:45:09.753Z,7.53
2017-09-06T06:47:38.271Z,6.00
2017-09-06T06:50:05.849Z,8.33
2017-09-06T06:52:33.399Z,7.07
2017-09-06T06:55:00.961Z,6.10
2017-09-06T06:57:28.553Z,6.30
2017-09-06T06:59:56.091Z,6.93
2017-09-06T07:02:23.658Z,7.00
2017-09-06T07:04:51.249Z,7.40
2017-09-06T07:07:18.804Z,8.50
2017-09-06T07:09:46.392Z,6.37
2017-09-06T07:12:14.658Z,5.80
2017-09-06T07:14:42.189Z,5.57
2017-09-06T07:17:09.774Z,6.73
2017-09-06T07:19:37.309Z,5.10
2017-09-06T07:22:04.901Z,9.47
2017-09-06T07:24:32.552Z,6.70
2017-09-06T07:27:00.115Z,7.20
2017-09-06T07:29:27.719Z,6.70
2017-09-06T07:31:55.309Z,8.00
2017-09-06T07:34:22.914Z,7.17
2017-09-06T07:36:50.482Z,10.57
2017-09-06T07:39:18.046Z,8.80
2017-09-06T07:41:45.659Z,9.03
2017-09-06T07:44:13.271Z,9.70
2017-09-06T07:46:40.846Z,8.77
2017-09-06T07:49:08.403Z,10.07
2017-09-06T07:51:35.970Z,8.77
2017-09-06T07:54:03.550Z,10.13
2017-09-06T07:56:31.180Z,11.27
2017-09-06T07:58:58.780Z,12.67
2017-09-06T08:01:26.361Z,14.20
2017-09-06T08:03:53.951Z,8.73
2017-09-06T08:06:21.510Z,11.33
2017-09-06T08:08:49.132Z,7.40
2017-09-06T08:11:16.714Z,9.50
2017-09-06T08:13:44.285Z,6.27
2017-09-06T08:16:11.843Z,5.90
2017-09-06T08:18:39.422Z,6.23
2017-09-06T08:21:06.980Z,10.30
2017-09-06T08:23:34.561Z,10.27
2017-09-06T08:26:02.170Z,6.33
2017-09-06T08:28:29.736Z,5.67
2017-09-06T08:30:57.294Z,11.33
2017-09-06T08:33:24.887Z,4.83
2017-09-06T08:35:52.442Z,5.23
2017-09-06T08:38:20.037Z,11.43
2017-09-06T08:40:47.641Z,8.70
2017-09-06T08:43:15.194Z,4.53
2017-09-06T08:45:43.067Z,6.97
2017-09-06T08:48:10.640Z,7.13
2017-09-06T08:50:38.707Z,3.03
2017-09-06T08:53:06.307Z,3.17
2017-09-06T08:55:33.859Z,2.47
2017-09-06T08:58:01.443Z,2.10
2017-09-06T09:00:28.994Z,3.00
2017-09-06T09:02:56.555Z,1.30
2017-09-06T09:05:24.112Z,1.87
2017-09-06T09:07:51.675Z,3.97
2017-09-06T09:10:19.247Z,0.73
2017-09-06T09:12:46.843Z,0.93
2017-09-06T09:15:14.522Z,2.03
2017-09-06T09:17:42.114Z,6.50
2017-09-06T09:20:09.725Z,3.80
2017-09-06T09:22:37.321Z,4.20
2017-09-06T09:25:04.898Z,4.10
2017-09-06T09:27:32.493Z,5.53
2017-09-06T09:30:00.113Z,2.20
2017-09-06T09:32:27.752Z,5.70
2017-09-06T09:34:55.313Z,2.57
2017-09-06T09:37:22.909Z,6.97
2017-09-06T09:39:50.461Z,4.33
2017-09-06T09:42:18.091Z,2.97
2017-09-06T09:44:45.713Z,4.20
2017-09-06T09:47:13.270Z,4.40
2017-09-06T09:49:41.728Z,5.33
2017-09-06T09:52:09.309Z,8.77
2017-09-06T09:54:36.928Z,4.70
2017-09-06T09:57:04.573Z,6.60
2017-09-06T09:59:32.151Z,5.90
2017-09-06T10:01:59.729Z,7.97
2017-09-06T10:04:27.277Z,6.50
2017-09-06T10:06:54.909Z,5.77
2017-09-06T10:09:22.465Z,7.67
2017-09-06T10:11:50.950Z,10.23
2017-09-06T10:14:18.564Z,7.87
2017-09-06T10:16:46.129Z,11.10
2017-09-06T10:19:13.730Z,4.30
2017-09-06T10:21:41.289Z,7.23
2017-09-06T10:24:08.853Z,3.30
2017-09-06T10:26:36.440Z,6.70
2017-09-06T10:29:04.103Z,11.03
2017-09-06T10:31:31.717Z,8.50
2017-09-06T10:33:59.335Z,9.00
2017-09-06T10:36:26.934Z,8.97
2017-09-06T10:38:54.501Z,9.40
2017-09-06T10:41:22.078Z,8.73
2017-09-06T10:43:49.665Z,10.83
2017-09-06T10:46:17.961Z,10.00
2017-09-06T10:48:45.575Z,8.97
2017-09-06T10:51:13.150Z,13.67
2017-09-06T10:53:40.735Z,9.17
2017-09-06T10:56:08.304Z,9.07
2017-09-06T10:58:35.855Z,11.10
2017-09-06T11:01:03.449Z,11.30
2017-09-06T11:03:31.637Z,3.73
2017-09-06T11:05:59.197Z,9.17
2017-09-06T11:08:26.806Z,11.43
2017-09-06T11:10:54.341Z,9.10
2017-09-06T11:13:21.962Z,8.40
2017-09-06T11:15:49.517Z,9.30
2017-09-06T11:18:17.038Z,5.57
2017-09-06T11:20:45.434Z,9.80
2017-09-06T11:23:13.039Z,8.03
2017-09-06T11:25:40.596Z,14.30
2017-09-06T11:28:08.375Z,11.33
2017-09-06T11:30:35.919Z,9.83
2017-09-06T11:33:03.470Z,8.97
2017-09-06T11:35:31.066Z,4.50
2017-09-06T11:37:58.640Z,6.27
2017-09-06T11:40:26.200Z,6.97
2017-09-06T11:42:53.757Z,15.03
2017-09-06T11:45:21.948Z,14.43
2017-09-06T11:47:49.522Z,7.20
2017-09-06T11:50:17.113Z,7.10
2017-09-06T11:52:44.679Z,8.13
2017-09-06T11:55:12.264Z,16.23
2017-09-06T11:57:39.871Z,11.00
2017-09-06T12:00:08.045Z,8.70
2017-09-06T12:02:35.888Z,11.23
2017-09-06T12:05:03.430Z,8.97
2017-09-06T12:07:31.003Z,5.43
2017-09-06T12:09:58.595Z,7.67
2017-09-06T12:12:26.146Z,14.13
2017-09-06T12:14:53.751Z,9.60
2017-09-06T12:17:21.307Z,10.93
2017-09-06T12:19:48.890Z,8.53
2017-09-06T12:22:17.500Z,5.50
2017-09-06T12:24:45.054Z,8.00
2017-09-06T12:27:12.596Z,12.03
2017-09-06T12:29:40.181Z,9.03
2017-09-06T12:32:07.731Z,9.43
2017-09-06T12:34:35.302Z,5.60
2017-09-06T12:37:02.858Z,9.53
2017-09-06T12:39:30.392Z,6.47
2017-09-06T12:41:58.840Z,8.97
2017-09-06T12:44:26.467Z,9.67
2017-09-06T12:46:54.019Z,11.20
2017-09-06T12:49:21.566Z,9.30
2017-09-06T12:51:50.056Z,8.50
2017-09-06T12:54:17.673Z,11.83
2017-09-06T12:56:45.380Z,6.83
2017-09-06T12:59:12.960Z,11.50
2017-09-06T13:01:41.444Z,8.17
2017-09-06T13:04:09.189Z,6.70
2017-09-06T13:06:36.749Z,11.83
2017-09-06T13:09:04.311Z,7.40
2017-09-06T13:11:31.893Z,14.03
2017-09-06T13:13:59.470Z,13.90
2017-09-06T13:16:27.102Z,8.00
2017-09-06T13:18:54.663Z,7.70
2017-09-06T13:21:22.258Z,10.23
2017-09-06T13:23:49.836Z,6.07
2017-09-06T13:26:17.377Z,7.03
2017-09-06T13:28:44.942Z,3.77
2017-09-06T13:31:12.521Z,8.63
2017-09-06T13:33:40.095Z,8.63
2017-09-06T13:36:07.665Z,6.87
2017-09-06T13:38:35.230Z,6.07
2017-09-06T13:41:02.777Z,9.77
2017-09-06T13:43:30.671Z,5.67
2017-09-06T13:45:58.242Z,8.20
2017-09-06T13:48:25.794Z,6.30
2017-09-06T13:50:53.364Z,8.00
2017-09-06T13:53:20.978Z,6.80
2017-09-06T13:55:48.575Z,6.17
2017-09-06T13:58:16.142Z,9.17
2017-09-06T14:00:43.766Z,13.03
2017-09-06T14:03:11.334Z,10.33
2017-09-06T14:05:38.932Z,14.67
2017-09-06T14:08:11.099Z,7.30
2017-09-06T14:10:42.468Z,12.90
2017-09-06T14:13:10.877Z,6.40
2017-09-06T14:15:38.486Z,11.57
2017-09-06T14:18:06.676Z,13.93
2017-09-06T14:20:34.558Z,13.90
2017-09-06T14:23:02.338Z,5.60
2017-09-06T14:25:31.513Z,10.63
2017-09-06T14:27:59.096Z,11.00
2017-09-06T14:30:26.711Z,4.47
2017-09-06T14:32:54.306Z,6.87
2017-09-06T14:35:21.927Z,10.70
2017-09-06T14:37:49.511Z,8.70
2017-09-06T14:40:17.045Z,10.20
2017-09-06T14:42:44.635Z,8.20
2017-09-06T14:45:13.004Z,9.33
2017-09-06T14:47:40.546Z,8.00
2017-09-06T14:50:08.119Z,8.17
2017-09-06T14:52:35.680Z,13.87
2017-09-06T14:55:03.284Z,15.40
2017-09-06T14:57:30.933Z,9.83
2017-09-06T14:59:58.563Z,11.47
2017-09-06T15:02:26.135Z,10.53
2017-09-06T15:04:54.326Z,12.10
2017-09-06T15:07:21.897Z,3.53
2017-09-06T15:09:49.504Z,13.20
2017-09-06T15:12:17.117Z,9.10
2017-09-06T15:14:44.657Z,6.60
2017-09-06T15:17:12.199Z,9.33
2017-09-06T15:19:39.739Z,8.57
2017-09-06T15:22:07.345Z,10.50
2017-09-06T15:24:35.238Z,6.17
2017-09-06T15:27:02.798Z,12.20
2017-09-06T15:29:30.381Z,11.83
2017-09-06T15:31:57.976Z,5.73
2017-09-06T15:34:25.540Z,11.80
2017-09-06T15:36:53.129Z,8.37
2017-09-06T15:39:21.329Z,9.50
2017-09-06T15:41:48.865Z,6.37
2017-09-06T15:44:16.430Z,6.90
2017-09-06T15:46:43.990Z,7.90
2017-09-06T15:49:12.073Z,8.00
2017-09-06T15:51:39.782Z,12.63
2017-09-06T15:54:07.922Z,9.60
2017-09-06T15:56:35.494Z,9.23
2017-09-06T15:59:03.092Z,15.20
2017-09-06T16:01:30.660Z,13.47
2017-09-06T16:03:58.214Z,8.97
2017-09-06T16:06:26.137Z,24.40
2017-09-06T16:08:53.750Z,18.80
2017-09-06T16:11:22.070Z,17.70
2017-09-06T16:13:49.649Z,8.50
2017-09-06T16:16:17.245Z,17.13
2017-09-06T16:18:44.786Z,21.17
2017-09-06T16:21:12.357Z,16.93
2017-09-06T16:23:39.946Z,19.17
2017-09-06T16:26:07.487Z,13.10
2017-09-06T16:28:35.061Z,13.40
2017-09-06T16:31:02.611Z,5.33
2017-09-06T16:33:30.921Z,8.53
2017-09-06T16:35:58.509Z,9.40
2017-09-06T16:38:26.088Z,26.73
2017-09-06T16:40:53.690Z,13.50
2017-09-06T16:43:21.733Z,8.53
2017-09-06T16:45:49.307Z,23.90
2017-09-06T16:48:16.890Z,10.70
2017-09-06T16:50:44.481Z,8.80
2017-09-06T16:53:12.033Z,16.67
2017-09-06T16:55:39.648Z,10.23
2017-09-06T16:58:07.214Z,12.70
2017-09-06T17:00:34.829Z,9.50
2017-09-06T17:03:02.378Z,9.93
2017-09-06T17:05:29.941Z,11.23
2017-09-06T17:07:57.555Z,9.97
2017-09-06T17:10:25.166Z,7.60
2017-09-06T17:12:52.714Z,12.93
2017-09-06T17:15:20.258Z,18.43
2017-09-06T17:17:47.850Z,7.33
2017-09-06T17:20:15.420Z,10.50
2017-09-06T17:22:42.977Z,8.30
2017-09-06T17:25:10.542Z,21.40
2017-09-06T17:27:38.124Z,19.57
2017-09-06T17:30:05.710Z,12.80
2017-09-06T17:32:33.284Z,12.73
2017-09-06T17:35:00.848Z,13.00
2017-09-06T17:37:28.408Z,9.90
2017-09-06T17:39:55.958Z,13.50
2017-09-06T17:42:23.625Z,10.23
2017-09-06T17:44:51.195Z,11.97
2017-09-06T17:47:18.823Z,6.43
2017-09-06T17:49:46.370Z,10.43
2017-09-06T17:52:13.925Z,12.57
2017-09-06T17:54:41.532Z,18.93
2017-09-06T17:57:09.100Z,17.27
2017-09-06T17:59:36.689Z,8.90
2017-09-06T18:02:04.257Z,11.67
2017-09-06T18:04:32.648Z,14.40
2017-09-06T18:07:00.518Z,12.70
2017-09-06T18:09:28.071Z,12.93
2017-09-06T18:11:55.677Z,9.17
2017-09-06T18:14:23.511Z,12.83
2017-09-06T18:16:51.478Z,11.07
2017-09-06T18:19:19.549Z,16.43
2017-09-06T18:21:47.118Z,14.20
2017-09-06T18:24:14.673Z,14.23
2017-09-06T18:26:42.272Z,13.87
2017-09-06T18:29:09.868Z,10.97
2017-09-06T18:31:37.773Z,10.03
2017-09-06T18:34:05.372Z,9.07
2017-09-06T18:36:33.867Z,14.03
2017-09-06T18:39:01.481Z,15.83
2017-09-06T18:41:29.093Z,12.20
2017-09-06T18:43:57.575Z,15.07
2017-09-06T18:46:25.164Z,35.20
2017-09-06T18:48:52.720Z,18.30
2017-09-06T18:51:20.309Z,41.03
2017-09-06T18:53:47.906Z,12.83
2017-09-06T18:56:15.468Z,16.37
2017-09-06T18:58:43.131Z,29.70
2017-09-06T19:01:10.715Z,12.77
2017-09-06T19:03:38.284Z,18.37
2017-09-06T19:06:05.842Z,19.63
2017-09-06T19:08:33.443Z,12.93
2017-09-06T19:11:01.037Z,18.00
2017-09-06T19:13:28.624Z,20.93
2017-09-06T19:15:56.250Z,13.47
2017-09-06T19:18:24.706Z,10.50
2017-09-06T19:20:52.279Z,14.83
2017-09-06T19:23:19.844Z,19.47
2017-09-06T19:25:47.447Z,14.50
2017-09-06T19:28:15.005Z,13.10
2017-09-06T19:30:42.546Z,15.70
2017-09-06T19:33:10.153Z,19.30
2017-09-06T19:35:37.715Z,7.93
2017-09-06T19:38:05.539Z,18.33
2017-09-06T19:40:33.114Z,14.20
2017-09-06T19:43:00.958Z,12.60
2017-09-06T19:45:29.118Z,17.10
2017-09-06T19:47:56.689Z,11.63
2017-09-06T19:50:24.515Z,16.60
2017-09-06T19:52:52.085Z,19.50
2017-09-06T19:55:19.664Z,15.90
2017-09-06T19:57:47.281Z,18.40
2017-09-06T20:00:14.888Z,13.87
2017-09-06T20:02:42.473Z,16.37
2017-09-06T20:05:10.080Z,15.90
2017-09-06T20:07:37.639Z,17.60
2017-09-06T20:10:06.432Z,15.73
2017-09-06T20:12:34.034Z,20.50
2017-09-06T20:15:01.614Z,23.37
2017-09-06T20:17:29.185Z,16.47
2017-09-06T20:19:56.745Z,15.90
2017-09-06T20:22:24.334Z,13.60
2017-09-06T20:24:51.956Z,13.80
2017-09-06T20:27:19.697Z,10.87
2017-09-06T20:29:47.326Z,14.33
2017-09-06T20:32:14.976Z,16.20
2017-09-06T20:34:42.579Z,15.00
2017-09-06T20:37:13.242Z,10.33
2017-09-06T20:39:41.839Z,15.40
2017-09-06T20:42:09.393Z,16.30
2017-09-06T20:44:36.932Z,12.33
2017-09-06T20:47:04.533Z,11.33
2017-09-06T20:49:32.108Z,9.83
2017-09-06T20:51:59.691Z,16.50
2017-09-06T20:54:27.277Z,13.80
2017-09-06T20:56:54.830Z,10.30
2017-09-06T20:59:22.424Z,15.50
2017-09-06T21:01:49.967Z,9.93
2017-09-06T21:04:19.909Z,14.03
2017-09-06T21:06:47.468Z,18.50
2017-09-06T21:09:15.629Z,13.97
2017-09-06T21:11:43.210Z,12.83
2017-09-06T21:14:10.946Z,13.30
2017-09-06T21:16:38.498Z,18.93
2017-09-06T21:19:06.094Z,16.60
2017-09-06T21:21:34.237Z,13.40
2017-09-06T21:24:01.839Z,15.13
2017-09-06T21:26:29.397Z,14.98
2017-09-06T21:28:56.933Z,18.53
2017-09-06T21:31:24.515Z,17.07
2017-09-06T21:33:52.430Z,21.50
2017-09-06T21:36:20.034Z,13.63
2017-09-06T21:38:47.594Z,13.00
2017-09-06T21:41:15.283Z,19.87
2017-09-06T21:43:42.883Z,21.00
2017-09-06T21:46:10.445Z,11.80
2017-09-06T21:48:38.051Z,12.88
2017-09-06T21:51:05.627Z,20.17
2017-09-06T21:53:33.203Z,18.30
2017-09-06T21:56:00.791Z,19.37
2017-09-06T21:58:28.360Z,13.67
2017-09-06T22:00:55.973Z,18.00
2017-09-06T22:03:23.594Z,13.67
2017-09-06T22:05:51.176Z,19.23
2017-09-06T22:08:18.722Z,17.30
2017-09-06T22:10:46.283Z,21.70
2017-09-06T22:13:13.878Z,17.93
2017-09-06T22:15:41.755Z,13.75
2017-09-06T22:18:09.353Z,13.10
2017-09-06T22:20:36.930Z,18.95
2017-09-06T22:23:04.489Z,21.70
2017-09-06T22:25:32.887Z,21.80
2017-09-06T22:28:00.476Z,17.73
2017-09-06T22:30:28.110Z,15.18
2017-09-06T22:32:56.305Z,18.87
2017-09-06T22:35:23.904Z,12.18
2017-09-06T22:37:51.452Z,13.20
2017-09-06T22:40:19.042Z,10.80
2017-09-06T22:42:46.604Z,15.40
2017-09-06T22:45:14.162Z,14.90
2017-09-06T22:47:42.517Z,12.73
2017-09-06T22:50:10.094Z,13.93
2017-09-06T22:52:37.672Z,18.58
2017-09-06T22:55:05.281Z,15.90
2017-09-06T22:57:32.890Z,25.30
2017-09-06T23:00:00.550Z,11.70
2017-09-06T23:02:28.152Z,16.90
2017-09-06T23:04:55.763Z,16.37
2017-09-06T23:07:23.333Z,11.25
2017-09-06T23:09:50.909Z,10.43
2017-09-06T23:14:52.305Z,14.90
2017-09-06T23:17:20.282Z,18.55
2017-09-06T23:19:47.873Z,12.25
2017-09-06T23:22:15.563Z,22.10
2017-09-06T23:24:43.114Z,14.48
2017-09-06T23:27:11.494Z,11.10
2017-09-06T23:29:39.046Z,23.38
2017-09-06T23:32:06.666Z,19.05
2017-09-06T23:34:34.225Z,18.12
2017-09-06T23:37:01.822Z,29.30
2017-09-06T23:39:29.420Z,16.90
2017-09-06T23:41:56.987Z,16.20
2017-09-06T23:44:24.566Z,16.80
2017-09-06T23:46:52.116Z,12.27
2017-09-06T23:49:19.711Z,19.87
2017-09-06T23:51:47.306Z,14.18
2017-09-06T23:54:15.569Z,29.52
2017-09-06T23:56:44.001Z,11.63
2017-09-06T23:59:11.639Z,15.65
